Time;durP1;ratioP1;P1;durP2;ratioP2;P2;SDS_P1;SDS_P2;PMS_P1;PMS_P2;Temp;Humidity;BMP_temperature;BMP_pressure;BME280_temperature;BME280_humidity;BME280_pressure;Samples;Min_cycle;Max_cycle;Signal;HPM_P1;HPM_P2
2021/12/03 00:01:48;;;;;;;9.88;2.78;;;4.20;90.50;;;;;;6218897;28;20054;-84
2021/12/03 00:04:50;;;;;;;5.65;2.83;;;4.10;90.40;;;;;;6218424;28;20050;-85
2021/12/03 00:07:52;;;;;;;8.48;3.50;;;4.00;90.70;;;;;;6218199;28;20069;-84
2021/12/03 00:10:56;;;;;;;4.85;2.85;;;3.90;90.80;;;;;;6218475;28;20054;-85
2021/12/03 00:13:58;;;;;;;7.30;3.80;;;3.90;90.90;;;;;;6217133;28;20145;-84
2021/12/03 00:17:02;;;;;;;8.07;3.00;;;3.80;91.10;;;;;;6217849;28;20102;-84
2021/12/03 00:20:06;;;;;;;9.18;3.72;;;3.80;91.10;;;;;;6216986;28;20038;-82
2021/12/03 00:23:08;;;;;;;13.52;3.25;;;3.80;91.20;;;;;;6217268;28;20145;-83
2021/12/03 00:26:10;;;;;;;7.38;3.30;;;3.90;91.20;;;;;;6216320;28;20057;-85
2021/12/03 00:29:12;;;;;;;9.88;3.95;;;3.90;91.10;;;;;;6216675;28;20118;-85
2021/12/03 00:32:16;;;;;;;7.03;3.60;;;3.90;90.90;;;;;;6215662;28;20069;-84
2021/12/03 00:35:19;;;;;;;10.95;3.75;;;3.80;90.80;;;;;;6220391;28;20054;-83
2021/12/03 00:38:21;;;;;;;10.40;5.07;;;3.80;91.00;;;;;;6226473;28;20080;-82
2021/12/03 00:41:23;;;;;;;7.10;4.30;;;3.80;91.00;;;;;;6226995;28;20487;-83
2021/12/03 00:44:25;;;;;;;8.82;4.80;;;3.80;91.00;;;;;;6226228;28;20050;-82
2021/12/03 00:47:29;;;;;;;9.88;3.80;;;3.80;91.10;;;;;;6226200;28;20061;-83
2021/12/03 00:50:32;;;;;;;10.63;4.63;;;3.90;91.10;;;;;;6227714;28;20146;-83
2021/12/03 00:53:35;;;;;;;9.57;3.95;;;3.90;91.00;;;;;;6225706;28;20050;-83
2021/12/03 00:56:36;;;;;;;9.43;4.10;;;4.00;90.90;;;;;;6225054;28;20106;-82
2021/12/03 00:59:38;;;;;;;12.15;4.35;;;3.90;90.60;;;;;;6221875;28;20058;-84
2021/12/03 01:02:41;;;;;;;8.80;4.53;;;3.90;90.60;;;;;;6217785;28;20077;-84
2021/12/03 01:05:43;;;;;;;12.63;5.28;;;3.90;90.70;;;;;;6215737;28;20112;-84
2021/12/03 01:08:45;;;;;;;9.27;4.35;;;3.90;91.00;;;;;;6216210;28;20046;-85
2021/12/03 01:11:47;;;;;;;11.85;5.30;;;3.90;90.90;;;;;;6215607;28;20121;-84
2021/12/03 01:14:49;;;;;;;10.40;4.60;;;3.90;90.80;;;;;;6215089;28;20096;-84
2021/12/03 01:17:52;;;;;;;12.68;4.30;;;3.90;90.70;;;;;;6215065;28;20039;-84
2021/12/03 01:20:54;;;;;;;10.20;4.80;;;3.90;91.10;;;;;;6216457;28;20070;-85
2021/12/03 01:23:57;;;;;;;11.93;5.25;;;3.80;90.90;;;;;;6216941;28;20062;-84
2021/12/03 01:26:59;;;;;;;9.35;4.88;;;3.80;91.00;;;;;;6215576;28;20129;-83
2021/12/03 01:30:01;;;;;;;14.18;5.32;;;3.90;90.70;;;;;;6215153;28;20089;-83
2021/12/03 01:33:06;;;;;;;8.68;5.10;;;3.90;90.50;;;;;;6214598;28;20602;-84
2021/12/03 01:36:08;;;;;;;9.30;4.78;;;3.80;90.70;;;;;;6213411;28;20480;-84
2021/12/03 01:39:12;;;;;;;8.73;4.70;;;3.80;91.10;;;;;;6213791;28;20042;-85
2021/12/03 01:42:14;;;;;;;10.60;4.80;;;3.80;90.70;;;;;;6213767;28;20089;-83
2021/12/03 01:45:19;;;;;;;12.57;5.18;;;3.80;90.90;;;;;;6214466;28;20058;-82
2021/12/03 01:48:22;;;;;;;18.40;6.15;;;3.70;90.70;;;;;;6215305;28;20572;-84
2021/12/03 01:51:24;;;;;;;12.80;6.03;;;3.70;90.40;;;;;;6215265;28;20133;-83
2021/12/03 01:54:26;;;;;;;12.43;5.35;;;3.50;91.00;;;;;;6216309;28;20135;-82
2021/12/03 01:57:28;;;;;;;11.95;4.85;;;3.40;90.60;;;;;;6215708;28;20066;-83
2021/12/03 02:00:32;;;;;;;12.82;4.80;;;3.30;91.10;;;;;;6215595;28;20089;-83
2021/12/03 02:03:38;;;;;;;13.00;5.53;;;3.20;91.10;;;;;;6215484;28;20102;-83
2021/12/03 02:06:39;;;;;;;11.27;4.93;;;3.20;91.10;;;;;;6215730;28;20109;-84
2021/12/03 02:09:42;;;;;;;15.13;5.13;;;3.10;91.10;;;;;;6214987;28;20065;-84
2021/12/03 02:12:44;;;;;;;11.48;5.13;;;3.10;91.20;;;;;;6215068;28;20050;-83
2021/12/03 02:15:46;;;;;;;10.57;5.88;;;3.00;91.00;;;;;;6216214;28;20042;-84
2021/12/03 02:18:50;;;;;;;9.38;4.90;;;2.90;91.20;;;;;;6216415;28;20054;-84
2021/12/03 02:21:53;;;;;;;11.02;5.18;;;2.80;91.30;;;;;;6214694;28;20108;-83
2021/12/03 02:24:55;;;;;;;15.25;6.00;;;2.70;91.50;;;;;;6214787;28;20050;-81
2021/12/03 02:27:58;;;;;;;13.95;5.78;;;2.60;91.60;;;;;;6216669;28;20074;-82
2021/12/03 02:31:00;;;;;;;18.25;5.30;;;2.50;91.70;;;;;;6214914;28;20133;-83
2021/12/03 02:34:02;;;;;;;8.07;4.75;;;2.40;91.80;;;;;;6213409;28;20566;-85
2021/12/03 02:37:06;;;;;;;16.38;5.20;;;2.30;91.90;;;;;;6215482;28;20042;-84
2021/12/03 02:40:10;;;;;;;12.38;5.95;;;2.30;91.90;;;;;;6214125;28;20042;-83
2021/12/03 02:43:12;;;;;;;18.60;6.55;;;2.20;92.00;;;;;;6213295;28;20050;-84
2021/12/03 02:46:14;;;;;;;18.05;6.72;;;2.10;92.10;;;;;;6216245;28;20058;-83
2021/12/03 02:49:16;;;;;;;13.57;6.22;;;2.10;92.20;;;;;;6216603;28;20113;-83
2021/12/03 02:52:19;;;;;;;20.90;6.65;;;2.10;92.30;;;;;;6217798;28;20054;-82
2021/12/03 02:55:22;;;;;;;17.27;6.88;;;2.00;92.40;;;;;;6215444;28;20074;-84
2021/12/03 02:58:24;;;;;;;17.33;7.28;;;2.00;92.40;;;;;;6216084;28;20085;-84
2021/12/03 03:04:42;;;;;;;18.02;7.65;;;1.90;92.50;;;;;;6217043;28;20050;-85
2021/12/03 03:07:45;;;;;;;20.92;8.35;;;1.90;92.50;;;;;;6215950;28;20058;-83
2021/12/03 03:10:47;;;;;;;16.05;6.85;;;1.80;92.50;;;;;;6216327;28;20143;-83
2021/12/03 03:13:49;;;;;;;18.92;6.80;;;1.80;92.60;;;;;;6212730;28;20054;-84
2021/12/03 03:16:51;;;;;;;23.75;8.45;;;1.80;92.70;;;;;;6211869;28;20054;-81
2021/12/03 03:19:54;;;;;;;21.63;8.75;;;1.70;92.70;;;;;;6216203;28;20061;-81
2021/12/03 03:22:57;;;;;;;20.00;7.07;;;1.70;92.70;;;;;;6215473;28;20477;-84
2021/12/03 03:25:59;;;;;;;21.05;7.65;;;1.70;92.80;;;;;;6213792;28;20042;-83
2021/12/03 03:29:01;;;;;;;19.17;7.90;;;1.70;92.80;;;;;;6215552;28;20053;-82
2021/12/03 03:32:04;;;;;;;18.90;8.40;;;1.70;92.90;;;;;;6224484;28;20101;-82
2021/12/03 03:35:07;;;;;;;25.42;9.15;;;1.70;93.00;;;;;;6220273;28;20050;-83
2021/12/03 03:38:11;;;;;;;21.38;8.88;;;1.70;92.90;;;;;;6215211;28;20069;-83
2021/12/03 03:41:13;;;;;;;30.02;9.60;;;1.70;93.00;;;;;;6215098;28;20066;-84
2021/12/03 03:44:15;;;;;;;20.73;8.98;;;1.70;92.90;;;;;;6214856;28;20103;-83
2021/12/03 03:47:17;;;;;;;25.48;9.23;;;1.70;92.90;;;;;;6218008;28;20050;-83
2021/12/03 03:50:21;;;;;;;25.58;9.68;;;1.70;92.80;;;;;;6218034;28;20089;-83
2021/12/03 03:56:25;;;;;;;24.13;9.05;;;1.70;92.90;;;;;;6229958;23;20114;-83
2021/12/03 03:59:27;;;;;;;31.30;10.25;;;1.60;92.90;;;;;;6207865;28;20531;-81
2021/12/03 04:02:28;;;;;;;27.60;10.23;;;1.60;93.00;;;;;;6206154;28;20061;-82
2021/12/03 04:05:30;;;;;;;23.13;9.90;;;1.60;93.10;;;;;;6204646;28;20790;-82
2021/12/03 04:08:32;;;;;;;25.25;8.98;;;1.60;93.10;;;;;;6204992;28;20125;-82
2021/12/03 04:11:36;;;;;;;25.40;9.20;;;1.60;93.00;;;;;;6205081;28;20042;-80
2021/12/03 04:14:38;;;;;;;32.03;9.50;;;1.60;93.10;;;;;;6204957;28;20046;-81
2021/12/03 04:17:40;;;;;;;19.15;8.57;;;1.60;93.10;;;;;;6205162;28;20122;-81
2021/12/03 04:20:42;;;;;;;19.63;9.07;;;1.60;93.00;;;;;;6203934;28;20120;-81
2021/12/03 04:23:44;;;;;;;25.05;9.35;;;1.50;93.00;;;;;;6204352;28;20042;-81
2021/12/03 04:26:47;;;;;;;20.20;8.20;;;1.50;93.10;;;;;;6204072;28;20050;-81
2021/12/03 04:29:49;;;;;;;21.00;9.60;;;1.40;93.10;;;;;;6204166;28;20096;-81
2021/12/03 04:32:52;;;;;;;26.15;10.52;;;1.50;93.10;;;;;;6204970;28;20046;-82
2021/12/03 04:35:54;;;;;;;25.90;10.20;;;1.40;93.20;;;;;;6205155;28;20052;-82
2021/12/03 04:38:55;;;;;;;25.40;9.65;;;1.40;93.20;;;;;;6206319;28;20053;-81
2021/12/03 04:41:59;;;;;;;30.35;10.68;;;1.40;93.20;;;;;;6205558;28;20074;-81
2021/12/03 04:45:00;;;;;;;25.58;9.65;;;1.40;93.20;;;;;;6204045;28;20053;-81
2021/12/03 04:48:04;;;;;;;28.25;9.73;;;1.40;93.30;;;;;;6204200;28;20048;-80
2021/12/03 04:51:06;;;;;;;29.90;10.25;;;1.40;93.30;;;;;;6204780;28;20050;-80
2021/12/03 04:54:08;;;;;;;20.98;9.05;;;1.40;93.20;;;;;;6204296;28;20050;-82
2021/12/03 04:57:12;;;;;;;29.50;10.40;;;1.40;93.20;;;;;;6203659;28;20042;-81
2021/12/03 05:00:21;;;;;;;22.83;9.70;;;1.40;93.20;;;;;;6205602;28;20129;-82
2021/12/03 05:03:24;;;;;;;29.63;9.68;;;1.40;93.20;;;;;;6206185;28;20511;-81
2021/12/03 05:06:41;;;;;;;23.95;9.63;;;1.30;93.20;;;;;;6204915;28;20476;-81
2021/12/03 05:09:43;;;;;;;28.55;10.10;;;1.30;93.20;;;;;;6202926;28;20137;-80
2021/12/03 05:12:47;;;;;;;30.08;11.07;;;1.30;93.30;;;;;;6202012;28;20102;-80
2021/12/03 05:15:48;;;;;;;29.77;10.45;;;1.30;93.30;;;;;;6202268;28;20046;-81
2021/12/03 05:18:50;;;;;;;24.92;10.32;;;1.30;93.40;;;;;;6203654;28;20492;-82
2021/12/03 05:21:52;;;;;;;24.05;9.57;;;1.30;93.30;;;;;;6202539;28;20508;-80
2021/12/03 05:24:54;;;;;;;19.90;9.55;;;1.30;93.40;;;;;;6202211;28;20050;-80
2021/12/03 05:27:57;;;;;;;24.90;9.82;;;1.40;93.40;;;;;;6203212;28;20048;-82
2021/12/03 05:30:59;;;;;;;29.73;11.43;;;1.30;93.30;;;;;;6203591;28;20415;-81
2021/12/03 05:34:01;;;;;;;26.33;10.48;;;1.30;93.30;;;;;;6202182;28;20073;-81
2021/12/03 05:37:03;;;;;;;28.65;10.73;;;1.30;93.30;;;;;;6203451;28;20042;-81
2021/12/03 05:40:07;;;;;;;25.58;10.13;;;1.30;93.30;;;;;;6207535;28;20062;-80
2021/12/03 05:43:10;;;;;;;21.05;8.40;;;1.30;93.30;;;;;;6204220;28;20054;-81
2021/12/03 05:46:12;;;;;;;22.60;10.35;;;1.30;93.30;;;;;;6204853;28;20114;-81
2021/12/03 05:49:14;;;;;;;25.23;8.50;;;1.30;93.30;;;;;;6202851;28;20048;-80
2021/12/03 05:52:16;;;;;;;20.48;9.43;;;1.30;93.20;;;;;;6206203;28;20043;-79
2021/12/03 05:55:19;;;;;;;21.80;8.32;;;1.30;93.30;;;;;;6205351;28;20137;-81
2021/12/03 05:58:22;;;;;;;30.35;10.18;;;1.30;93.30;;;;;;6207137;28;20052;-81
2021/12/03 06:01:24;;;;;;;23.20;9.02;;;1.30;93.30;;;;;;6206467;28;20144;-81
2021/12/03 06:04:27;;;;;;;25.00;9.73;;;1.30;93.20;;;;;;6205893;28;20054;-80
2021/12/03 06:07:29;;;;;;;25.40;9.18;;;1.30;93.20;;;;;;6206305;28;20046;-81
2021/12/03 06:10:31;;;;;;;21.98;8.68;;;1.30;93.20;;;;;;6208690;28;20070;-81
2021/12/03 06:13:38;;;;;;;23.58;8.55;;;1.30;93.30;;;;;;6212590;28;20056;-81
2021/12/03 06:16:40;;;;;;;20.40;8.70;;;1.30;93.30;;;;;;6211596;28;20137;-82
2021/12/03 06:19:43;;;;;;;17.73;7.95;;;1.30;93.30;;;;;;6212430;28;20407;-80
2021/12/03 06:22:45;;;;;;;22.95;10.48;;;1.30;93.30;;;;;;6212047;28;20052;-81
2021/12/03 06:25:47;;;;;;;16.10;7.82;;;1.30;93.40;;;;;;6210108;28;20046;-82
2021/12/03 06:28:50;;;;;;;17.35;8.73;;;1.30;93.40;;;;;;6204063;28;20049;-80
2021/12/03 06:31:52;;;;;;;20.85;7.85;;;1.40;93.40;;;;;;6203385;28;20046;-81
2021/12/03 06:34:54;;;;;;;20.77;7.38;;;1.40;93.40;;;;;;6203590;28;20046;-81
2021/12/03 06:37:56;;;;;;;23.55;9.15;;;1.40;93.40;;;;;;6204484;28;20050;-81
2021/12/03 06:40:58;;;;;;;20.95;10.00;;;1.50;93.30;;;;;;6203341;28;20058;-80
2021/12/03 06:44:02;;;;;;;21.77;9.00;;;1.50;93.30;;;;;;6202404;28;20042;-81
2021/12/03 06:47:05;;;;;;;19.63;7.78;;;1.50;93.20;;;;;;6203494;28;20061;-81
2021/12/03 06:50:09;;;;;;;17.45;7.70;;;1.50;93.20;;;;;;6202034;28;20078;-81
2021/12/03 06:53:13;;;;;;;22.70;7.90;;;1.60;93.20;;;;;;6204010;28;20060;-80
2021/12/03 06:56:21;;;;;;;21.83;8.38;;;1.60;93.20;;;;;;6201175;28;20546;-81
2021/12/03 06:59:25;;;;;;;19.70;7.35;;;1.70;93.30;;;;;;6202804;28;20082;-81
2021/12/03 07:02:27;;;;;;;16.65;7.50;;;1.80;93.20;;;;;;6203318;28;20483;-81
2021/12/03 07:05:29;;;;;;;21.35;7.00;;;2.00;92.90;;;;;;6202415;28;20522;-81
2021/12/03 07:08:31;;;;;;;16.33;7.63;;;2.10;92.90;;;;;;6202437;28;20047;-81
2021/12/03 07:11:33;;;;;;;14.88;7.38;;;2.20;92.40;;;;;;6204466;28;20048;-81
2021/12/03 07:14:36;;;;;;;21.60;7.15;;;2.20;92.50;;;;;;6203313;28;20459;-82
2021/12/03 07:17:38;;;;;;;22.35;10.85;;;2.30;92.60;;;;;;6202849;28;20050;-82
2021/12/03 07:20:40;;;;;;;17.05;6.18;;;2.50;92.30;;;;;;6204683;28;20128;-82
2021/12/03 07:23:42;;;;;;;21.75;7.95;;;2.60;92.10;;;;;;6208461;28;20042;-81
2021/12/03 07:26:44;;;;;;;30.10;7.43;;;2.70;92.00;;;;;;6207150;28;20393;-81
2021/12/03 07:29:48;;;;;;;12.27;6.38;;;2.90;91.90;;;;;;6206332;28;20056;-81
2021/12/03 07:32:50;;;;;;;11.48;5.10;;;3.00;91.90;;;;;;6206166;28;20057;-81
2021/12/03 07:35:52;;;;;;;11.60;5.63;;;3.10;91.80;;;;;;6206559;28;20090;-82
2021/12/03 07:38:53;;;;;;;12.85;4.90;;;3.10;91.40;;;;;;6206974;28;20050;-82
2021/12/03 07:41:55;;;;;;;14.48;5.32;;;3.20;91.50;;;;;;6206368;28;20046;-80
2021/12/03 07:44:59;;;;;;;9.05;4.22;;;3.30;91.20;;;;;;6206160;28;20049;-81
2021/12/03 07:48:01;;;;;;;11.55;5.05;;;3.40;91.40;;;;;;6206254;28;20050;-83
2021/12/03 07:51:02;;;;;;;12.68;4.88;;;3.50;91.50;;;;;;6184230;28;20073;-82
2021/12/03 07:54:04;;;;;;;13.55;5.00;;;3.60;91.20;;;;;;6206457;28;20046;-81
2021/12/03 07:57:06;;;;;;;9.95;4.75;;;3.70;90.80;;;;;;6205610;28;20057;-80
2021/12/03 08:00:11;;;;;;;10.75;4.53;;;3.70;90.20;;;;;;6205869;28;20161;-81
2021/12/03 08:03:13;;;;;;;11.27;3.97;;;3.80;90.70;;;;;;6205844;28;20131;-81
2021/12/03 08:06:15;;;;;;;13.65;3.70;;;3.90;90.40;;;;;;6205438;28;20137;-81
2021/12/03 08:09:17;;;;;;;10.80;3.63;;;4.00;90.10;;;;;;6205557;28;20169;-80
2021/12/03 08:12:19;;;;;;;8.30;3.40;;;4.10;90.40;;;;;;6205372;28;20057;-80
2021/12/03 08:15:23;;;;;;;7.63;2.92;;;4.30;90.00;;;;;;6205036;28;20078;-81
2021/12/03 08:18:25;;;;;;;5.50;3.13;;;4.30;88.50;;;;;;6205890;28;20046;-81
2021/12/03 08:21:26;;;;;;;7.15;3.38;;;4.30;89.00;;;;;;6205931;28;20056;-82
2021/12/03 08:24:28;;;;;;;9.25;3.35;;;4.40;89.60;;;;;;6204877;28;20677;-81
2021/12/03 08:27:30;;;;;;;11.57;3.03;;;4.60;89.50;;;;;;6206228;28;20416;-81
2021/12/03 08:30:33;;;;;;;7.90;3.60;;;4.60;88.40;;;;;;6205828;28;20046;-81
2021/12/03 08:33:35;;;;;;;6.32;3.70;;;4.70;87.10;;;;;;6206376;28;20659;-81
2021/12/03 08:36:37;;;;;;;11.65;4.07;;;4.70;86.80;;;;;;6205261;28;20136;-81
2021/12/03 08:39:41;;;;;;;11.90;5.05;;;4.60;86.20;;;;;;6198262;28;20051;-82
2021/12/03 08:42:45;;;;;;;9.25;4.93;;;4.70;86.50;;;;;;6193207;28;20073;-84
2021/12/03 08:45:53;;;;;;;11.52;4.45;;;4.80;86.90;;;;;;6192114;28;20047;-83
2021/12/03 08:49:04;;;;;;;10.48;3.95;;;4.90;86.00;;;;;;6175910;28;20126;-82
2021/12/03 08:55:22;;;;;;;9.07;4.20;;;5.10;84.90;;;;;;6174587;28;20142;-81
2021/12/03 08:58:24;;;;;;;9.52;4.60;;;5.30;85.00;;;;;;6175796;28;20051;-81
2021/12/03 09:01:27;;;;;;;9.25;3.97;;;5.50;83.60;;;;;;6176171;28;20049;-81
2021/12/03 09:04:29;;;;;;;9.07;4.13;;;5.90;83.20;;;;;;6175188;28;20202;-82
2021/12/03 09:07:31;;;;;;;13.23;4.43;;;6.10;82.00;;;;;;6176932;28;20046;-82
2021/12/03 09:10:33;;;;;;;12.80;4.63;;;6.30;81.30;;;;;;6196392;28;20054;-83
2021/12/03 09:13:35;;;;;;;8.85;4.18;;;6.60;79.70;;;;;;6199581;28;20055;-82
2021/12/03 09:16:38;;;;;;;6.93;3.55;;;6.90;78.90;;;;;;6200622;28;20069;-82
2021/12/03 09:19:46;;;;;;;7.47;3.22;;;7.30;76.60;;;;;;6200748;28;20042;-84
2021/12/03 09:22:50;;;;;;;5.43;3.10;;;7.70;75.00;;;;;;6199764;28;20050;-81
2021/12/03 09:25:54;;;;;;;7.60;2.55;;;8.00;71.80;;;;;;6200186;28;20081;-81
2021/12/03 09:29:03;;;;;;;8.98;3.28;;;8.20;71.20;;;;;;6200029;28;20050;-82
2021/12/03 09:32:07;;;;;;;6.65;2.88;;;8.10;69.40;;;;;;6201435;28;20049;-83
2021/12/03 09:35:10;;;;;;;4.28;2.95;;;8.10;69.20;;;;;;6200518;28;20046;-82
2021/12/03 09:38:12;;;;;;;5.32;2.38;;;7.90;69.40;;;;;;6201694;28;20050;-82
2021/12/03 09:41:16;;;;;;;4.97;2.38;;;7.70;69.70;;;;;;6199624;28;20052;-81
2021/12/03 09:44:18;;;;;;;13.27;3.22;;;7.40;69.90;;;;;;6198088;28;20058;-82
2021/12/03 09:47:21;;;;;;;6.80;3.28;;;7.30;71.70;;;;;;6198998;28;20053;-81
2021/12/03 09:50:23;;;;;;;8.07;3.58;;;7.20;72.00;;;;;;6200109;28;20058;-81
2021/12/03 09:53:44;;;;;;;8.75;4.68;;;7.00;73.10;;;;;;6198864;28;20529;-81
2021/12/03 09:57:01;;;;;;;11.75;5.30;;;7.00;74.40;;;;;;6198614;28;20443;-80
2021/12/03 10:00:24;;;;;;;8.77;5.00;;;7.00;76.90;;;;;;6199302;28;20492;-80
2021/12/03 10:03:43;;;;;;;9.88;4.88;;;7.20;78.10;;;;;;6201951;28;20139;-81
2021/12/03 10:13:46;;;;;;;10.77;3.75;;;8.00;76.50;;;;;;6204795;28;20046;-80
2021/12/03 10:20:35;;;;;;;8.60;3.05;;;8.00;78.80;;;;;;6214154;28;20058;-80
2021/12/03 10:30:52;;;;;;;4.90;2.65;;;8.80;73.20;;;;;;6195635;28;20042;-81
2021/12/03 10:34:07;;;;;;;7.60;2.63;;;8.90;70.30;;;;;;6215233;28;20053;-81
2021/12/03 10:37:32;;;;;;;4.15;2.33;;;9.30;70.90;;;;;;6203768;28;20050;-81
2021/12/03 10:44:30;;;;;;;5.07;2.40;;;10.00;64.70;;;;;;6202609;28;20049;-81
2021/12/03 10:47:43;;;;;;;4.70;2.30;;;10.10;63.00;;;;;;6201803;28;20052;-82
2021/12/03 10:54:14;;;;;;;5.10;2.38;;;9.60;63.60;;;;;;6181879;28;20042;-81
2021/12/03 11:31:49;;;;;;;8.20;3.05;;;7.70;67.40;;;;;;6346092;27;20391;-80
2021/12/03 11:35:28;;;;;;;6.22;4.53;;;7.60;67.60;;;;;;6321831;28;20048;-81
2021/12/03 11:42:30;;;;;;;3.78;2.08;;;7.70;68.30;;;;;;6322962;28;20052;-82
2021/12/03 12:20:35;;;;;;;6.00;2.95;;;7.70;67.90;;;;;;6320239;28;20040;-81
2021/12/03 12:44:50;;;;;;;4.38;2.45;;;8.40;63.90;;;;;;6302825;28;20041;-81
2021/12/03 14:06:09;;;;;;;40.55;21.17;;;7.20;68.60;;;;;;6304829;28;20040;-82
2021/12/03 14:36:36;;;;;;;6.72;2.55;;;7.20;70.10;;;;;;6300820;28;20140;-83
2021/12/03 14:43:22;;;;;;;6.72;2.03;;;7.00;70.00;;;;;;6303398;28;20399;-82
2021/12/03 14:46:48;;;;;;;4.22;2.00;;;6.80;70.30;;;;;;6301196;28;20048;-83
2021/12/03 14:53:17;;;;;;;5.15;2.30;;;6.50;69.70;;;;;;6298633;28;20093;-81
2021/12/03 14:56:23;;;;;;;3.90;1.90;;;6.30;70.10;;;;;;6300230;28;20067;-81
2021/12/03 14:59:29;;;;;;;5.63;2.35;;;6.20;71.80;;;;;;6299131;28;20059;-81
2021/12/03 15:02:52;;;;;;;5.03;1.92;;;6.20;71.00;;;;;;6300021;28;20052;-82
2021/12/03 15:06:02;;;;;;;5.15;3.03;;;6.10;71.90;;;;;;6299201;28;20051;-82
2021/12/03 15:09:11;;;;;;;3.67;1.88;;;6.00;71.30;;;;;;6299035;28;20406;-82
2021/12/03 15:19:15;;;;;;;4.32;1.98;;;6.00;72.90;;;;;;6300575;28;20127;-80
2021/12/03 15:22:39;;;;;;;3.88;2.75;;;6.00;71.90;;;;;;6299830;28;20040;-82
2021/12/03 15:25:51;;;;;;;6.38;2.25;;;5.90;71.30;;;;;;6299235;28;20044;-81
2021/12/03 15:32:17;;;;;;;8.48;2.10;;;5.80;71.20;;;;;;6300117;28;20120;-81
2021/12/03 15:35:21;;;;;;;6.10;2.75;;;5.70;71.50;;;;;;6300640;28;20056;-84
2021/12/03 15:38:42;;;;;;;5.90;2.25;;;5.70;72.70;;;;;;6296821;28;20079;-81
2021/12/03 16:06:13;;;;;;;7.15;2.30;;;5.50;72.40;;;;;;6301716;28;20083;-84
2021/12/03 16:09:27;;;;;;;3.75;1.30;;;5.60;72.40;;;;;;6300182;28;20101;-81
2021/12/03 16:12:42;;;;;;;4.32;2.08;;;5.50;72.10;;;;;;6299531;28;20045;-83
2021/12/03 16:19:35;;;;;;;3.00;1.83;;;5.60;73.10;;;;;;6303652;28;20522;-80
2021/12/03 16:22:57;;;;;;;7.88;1.58;;;5.80;72.50;;;;;;6304845;28;20052;-81
2021/12/03 16:26:14;;;;;;;5.90;3.53;;;5.80;72.60;;;;;;6303799;28;20065;-81
2021/12/03 16:52:35;;;;;;;8.23;2.08;;;5.60;70.80;;;;;;6306378;28;20374;-81
2021/12/03 16:55:37;;;;;;;8.45;2.03;;;5.50;70.40;;;;;;6305134;28;20135;-83
2021/12/03 16:58:41;;;;;;;4.05;2.40;;;5.50;70.80;;;;;;6305170;28;20052;-79
2021/12/03 17:01:46;;;;;;;3.70;1.65;;;5.50;70.60;;;;;;6305156;28;20044;-84
2021/12/03 17:05:08;;;;;;;2.83;1.75;;;5.50;70.60;;;;;;6304166;28;20048;-83
2021/12/03 17:11:39;;;;;;;3.95;1.88;;;5.50;70.40;;;;;;6304510;28;20090;-81
2021/12/03 17:25:15;;;;;;;11.57;3.10;;;5.50;71.50;;;;;;6302570;28;20502;-79
2021/12/03 17:52:10;;;;;;;4.93;2.22;;;5.60;71.00;;;;;;6303142;28;20383;-81
2021/12/03 17:58:32;;;;;;;5.40;1.92;;;5.60;70.60;;;;;;6298400;28;20055;-81
2021/12/03 18:01:37;;;;;;;8.05;1.85;;;5.60;70.70;;;;;;6275502;28;20171;-81
2021/12/03 18:04:45;;;;;;;8.23;1.85;;;5.60;70.50;;;;;;6276214;28;20048;-80
2021/12/03 18:07:56;;;;;;;3.65;1.85;;;5.50;70.90;;;;;;6255900;28;20058;-81
2021/12/03 18:11:24;;;;;;;5.85;1.75;;;5.50;71.00;;;;;;6227636;28;20053;-79
2021/12/03 18:45:00;;;;;;;4.35;1.48;;;5.60;70.80;;;;;;6229297;28;20511;-83
2021/12/03 18:48:24;;;;;;;4.80;1.67;;;5.60;69.80;;;;;;6231522;28;20049;-80
2021/12/03 18:51:32;;;;;;;3.63;1.50;;;5.60;70.40;;;;;;6236554;28;20372;-82
2021/12/03 18:54:40;;;;;;;;;;;5.60;71.80;;;;;;6236952;28;20089;-79
2021/12/03 18:57:44;;;;;;;3.45;1.52;;;5.60;70.00;;;;;;6229256;28;19932;-80
2021/12/03 19:00:46;;;;;;;3.65;1.65;;;5.60;69.50;;;;;;6226520;28;20085;-83
2021/12/03 19:07:10;;;;;;;7.32;1.40;;;5.50;70.20;;;;;;6226946;28;20053;-79
2021/12/03 19:10:15;;;;;;;2.30;1.17;;;5.50;69.20;;;;;;6225980;28;20585;-81
2021/12/03 19:13:22;;;;;;;4.65;2.80;;;5.50;69.40;;;;;;6225642;28;20065;-79
2021/12/03 19:16:25;;;;;;;14.77;4.05;;;5.50;69.60;;;;;;6225303;28;20057;-78
2021/12/03 19:19:30;;;;;;;6.55;3.50;;;5.60;69.80;;;;;;6224855;28;20519;-79
2021/12/03 19:22:32;;;;;;;7.13;1.77;;;5.70;69.30;;;;;;6226987;28;20057;-79
2021/12/03 19:25:34;;;;;;;6.65;2.22;;;5.70;68.40;;;;;;6227079;28;20157;-80
2021/12/03 19:28:36;;;;;;;6.28;2.58;;;5.70;68.60;;;;;;6227133;28;20173;-81
2021/12/03 19:31:39;;;;;;;14.30;8.75;;;5.60;69.30;;;;;;6228165;28;20093;-80
2021/12/03 19:34:42;;;;;;;2.90;1.45;;;5.70;69.00;;;;;;6231289;28;20109;-80
2021/12/03 19:37:45;;;;;;;3.90;2.47;;;5.70;67.80;;;;;;6228820;28;20081;-80
2021/12/03 19:40:54;;;;;;;9.63;2.58;;;5.70;67.80;;;;;;6230761;28;20196;-80
2021/12/03 19:43:58;;;;;;;7.95;2.20;;;5.70;68.20;;;;;;6228098;28;20411;-81
2021/12/03 19:46:59;;;;;;;2.53;1.30;;;5.70;68.50;;;;;;6229700;28;20057;-80
2021/12/03 19:50:17;;;;;;;1.98;1.30;;;5.80;67.60;;;;;;6228033;28;20049;-80
2021/12/03 19:53:26;;;;;;;3.53;1.70;;;5.80;67.10;;;;;;6233377;28;20042;-81
2021/12/03 19:56:30;;;;;;;2.83;0.98;;;5.90;66.50;;;;;;6236134;28;20053;-81
2021/12/03 19:59:32;;;;;;;2.08;1.13;;;5.80;65.90;;;;;;6233405;28;20053;-82
2021/12/03 20:02:34;;;;;;;7.28;1.20;;;5.90;66.00;;;;;;6232954;28;20065;-80
2021/12/03 20:05:38;;;;;;;1.38;0.95;;;6.00;65.40;;;;;;6234656;28;20522;-80
2021/12/03 20:08:39;;;;;;;2.38;0.90;;;6.00;64.10;;;;;;6232720;28;20553;-80
2021/12/03 20:11:44;;;;;;;1.88;0.73;;;6.00;64.70;;;;;;6232425;28;20050;-79
2021/12/03 20:14:48;;;;;;;2.08;1.05;;;6.00;64.30;;;;;;6231035;28;20049;-81
2021/12/03 20:17:52;;;;;;;2.13;0.93;;;6.10;64.30;;;;;;6235592;28;20447;-80
2021/12/03 20:20:57;;;;;;;2.75;0.93;;;6.20;64.80;;;;;;6232294;28;20052;-80
2021/12/03 20:24:17;;;;;;;2.00;0.63;;;6.30;63.90;;;;;;6231585;28;20057;-81
2021/12/03 20:27:22;;;;;;;2.10;0.90;;;6.30;61.80;;;;;;6230967;28;20415;-81
2021/12/03 20:30:35;;;;;;;1.85;0.88;;;6.30;61.90;;;;;;6233652;28;20056;-82
2021/12/03 20:33:54;;;;;;;2.13;0.95;;;6.40;61.90;;;;;;6233632;28;20507;-81
2021/12/03 20:36:59;;;;;;;1.27;0.80;;;6.40;62.10;;;;;;6232338;28;20052;-79
2021/12/03 20:40:06;;;;;;;3.22;0.70;;;6.40;61.00;;;;;;6234666;28;20052;-82
2021/12/03 20:43:22;;;;;;;1.13;0.45;;;6.40;60.30;;;;;;6235611;28;20149;-80
2021/12/03 20:46:42;;;;;;;1.25;0.55;;;6.50;60.70;;;;;;6233680;28;20080;-80
2021/12/03 20:53:16;;;;;;;2.75;0.98;;;6.60;60.70;;;;;;6230495;28;20042;-80
2021/12/03 21:09:41;;;;;;;1.75;0.93;;;6.80;60.50;;;;;;6237846;28;20130;-81
2021/12/03 21:12:45;;;;;;;1.92;0.90;;;6.80;59.30;;;;;;6238529;28;20053;-82
2021/12/03 21:16:04;;;;;;;2.85;1.10;;;6.80;59.50;;;;;;6238979;28;20073;-82
2021/12/03 21:19:22;;;;;;;2.67;0.70;;;6.90;59.70;;;;;;6236670;28;20056;-82
2021/12/03 21:22:29;;;;;;;2.05;1.35;;;6.90;58.50;;;;;;6232846;28;20056;-80
2021/12/03 21:25:34;;;;;;;2.45;0.68;;;6.90;58.80;;;;;;6232339;28;20049;-79
2021/12/03 21:28:44;;;;;;;2.30;0.80;;;6.90;58.20;;;;;;6236201;28;20439;-80
2021/12/03 21:31:49;;;;;;;1.35;0.63;;;6.90;57.50;;;;;;6235143;28;20046;-80
2021/12/03 21:38:39;;;;;;;3.58;0.88;;;6.80;57.30;;;;;;6235006;28;20361;-81
2021/12/03 21:41:42;;;;;;;3.40;0.95;;;6.90;56.90;;;;;;6237818;28;20050;-82
2021/12/03 21:44:44;;;;;;;1.58;0.50;;;6.90;56.30;;;;;;6239631;28;20045;-82
2021/12/03 21:47:46;;;;;;;1.42;0.47;;;6.90;56.20;;;;;;6240102;28;20515;-81
2021/12/03 21:50:48;;;;;;;2.63;0.73;;;6.80;55.40;;;;;;6238850;28;20046;-81
2021/12/03 21:53:50;;;;;;;8.90;2.40;;;6.80;55.40;;;;;;6239724;28;20070;-82
2021/12/03 21:57:00;;;;;;;1.45;0.60;;;6.90;55.50;;;;;;6228021;28;20052;-81
2021/12/03 22:00:02;;;;;;;1.45;0.35;;;6.90;55.20;;;;;;6227010;28;20053;-80
2021/12/03 22:03:05;;;;;;;1.58;0.60;;;6.90;55.00;;;;;;6226213;28;20500;-81
2021/12/03 22:06:06;;;;;;;5.30;0.70;;;6.90;54.90;;;;;;6225481;28;20061;-84
2021/12/03 22:09:10;;;;;;;1.38;0.52;;;7.00;54.90;;;;;;6226704;28;20076;-82
2021/12/03 22:12:13;;;;;;;4.13;0.50;;;7.00;54.70;;;;;;6225603;28;20748;-80
2021/12/03 22:15:15;;;;;;;1.08;0.30;;;7.10;54.90;;;;;;6224722;28;20054;-82
2021/12/03 22:18:16;;;;;;;0.90;0.30;;;7.10;54.70;;;;;;6225403;28;20129;-80
2021/12/03 22:21:20;;;;;;;3.13;1.00;;;7.20;54.20;;;;;;6227169;28;20073;-81
2021/12/03 22:24:21;;;;;;;0.57;0.50;;;7.20;54.40;;;;;;6227610;28;20181;-83
2021/12/03 22:27:25;;;;;;;0.70;0.32;;;7.20;54.20;;;;;;6229389;28;20052;-84
2021/12/03 22:30:27;;;;;;;1.65;0.47;;;7.20;53.90;;;;;;6229195;28;20050;-83
2021/12/03 22:33:29;;;;;;;1.00;0.43;;;7.20;54.30;;;;;;6227858;28;20046;-81
2021/12/03 22:36:30;;;;;;;1.50;0.60;;;7.20;54.00;;;;;;6223341;28;20058;-82
2021/12/03 22:39:32;;;;;;;2.60;0.68;;;7.30;54.30;;;;;;6227895;28;20069;-83
2021/12/03 22:42:35;;;;;;;0.65;0.38;;;7.20;53.90;;;;;;6229063;28;20058;-84
2021/12/03 22:45:41;;;;;;;1.40;0.50;;;7.20;54.00;;;;;;6227942;28;20046;-81
2021/12/03 22:48:46;;;;;;;1.42;0.57;;;7.30;54.50;;;;;;6228796;28;20131;-81